Flight Track Log - Related Links

Times and Time Zones

All times are in EST time to prevent confusion due to time zone crossing. See the BJS339 flight status page for this flight to view local times or setup timezone preferences in your user account.


Time Position Orientation Groundspeed Altitude Reporting Facility
EST Latitude Longitude Course Direction KTS MPH feet Rate Location/Type
Fri 11:46:00 AM 26.0978 -81.7169 109° East 193 222 4,000  Level Miami Center
Fri 11:47:00 AM 26.0750 -81.6489 110° East 221 254 7,800 3,000 Climbing Miami Center
Fri 11:48:00 AM 26.0547 -81.5672 105° East 265 305 10,000 1,100 Climbing Miami Center
Fri 11:49:00 AM 26.0308 -81.4647 105° East 315 362 10,000  Level Miami Center
Fri 11:50:00 AM 26.0069 -81.3597 104° East 347 399 10,000 -50 Level Miami Center
Fri 11:51:00 AM 26.0471 -81.3298 109° East  Level Estimated
Fri 11:51:00 AM 25.9808 -81.2547 105° East 347 399 9,900  Level Miami Center
Fri 11:52:00 AM 25.9564 -81.1683 107° East 339 390 9,900 54 Level Miami Center
Fri 11:52:52 AM 25.9272 -81.0933 113° Southeast 295 339 10,000  Climbing Miami Center
Fri 11:53:00 AM 25.9297 -81.0819 76° East 304 350 9,900 -97 Descending Miami Center
Fri 11:53:54 AM 25.8983 -81.0047 114° Southeast 294 338 9,900  Level Miami Center
Fri 11:54:00 AM 25.9006 -80.9978 70° East 290 334 9,900 -1,377 Level Miami Center
Fri 11:54:55 AM 25.8736 -80.9231 112° Southeast 291 335 8,500 -1,500 Descending Miami Center
Fri 11:55:00 AM 25.8739 -80.9139 88° East 290 334 8,400 -1,475 Descending Miami Center
Fri 11:55:56 AM 25.8656 -80.8350 97° East 282 325 7,000 -1,500 Descending Miami Center
Fri 11:56:00 AM 25.8678 -80.8258 75° East 285 328 6,900 -1,574 Descending Miami Center
Fri 11:56:57 AM 25.8594 -80.7472 97° East 277 319 5,400 -1,600 Descending Miami Center
Fri 11:57:00 AM 25.8617 -80.7425 62° Northeast 280 322 5,300 -1,238 Descending Miami Center
Fri 11:58:00 AM 25.8597 -80.6642 92° East 269 310 4,100 -1,108 Descending Miami Center
Fri 11:58:05 AM 25.8575 -80.6594 118° Southeast 243 280 4,100 -600 Level Miami Center
Fri 11:59:00 AM 25.8572 -80.5900 90° East 251 289 3,500 -626 Descending Miami Center
Fri 12:00:00 PM 25.8525 -80.5300 95° East 220 253 2,900 -492 Descending Miami Center
Fri 12:00:01 PM 25.8483 -80.5322 206° Southwest 167 192 3,000 -100 Climbing Miami Center
Fri 12:01:00 PM 25.8350 -80.4833 107° East 182 209 2,800 -194 Descending Miami Center
Fri 12:01:03 PM 25.8308 -80.4831 177° South 170 196 2,800 -800 Level Miami Center
Fri 12:02:00 PM 25.8192 -80.4389 106° East 177 204 2,000 -984 Descending Miami Center
Fri 12:02:04 PM 25.8111 -80.4317 141° Southeast 168 193 1,800 -462 Descending Miami Center
Fri 12:03:05 PM 25.8017 -80.3853 103° East 166 191 1,500 -541 Descending Miami Center
Fri 12:04:06 PM 25.7986 -80.3461 95° East 118 136 700 -689 Descending Miami Center
Fri 12:05:07 PM 25.8017 -80.3069 85° East 123 142 100 -590 Descending Miami Center
Fri 12:07:00 PM 25.7954 -80.2901 20° North  Level Estimated

Login

Don't have an account? Register now (free) for customized features, flight alerts, and more!